KGVT/GVT METAR and TAF weather

Enter ICAO airport designator
Station Type Date Time Source
KGVT METAR 2021/04/17 01:15 UTC NOAA

KGVT 170115Z AUTO 35009KT 10SM OVC006 12/11 A2990 RMK AO2 TSNO T01230115


Station Type Date Time Source
KGVT Decoded METAR 2021/04/17 01:15 UTC NOAA

Greenville / Majors, TX, United States (KGVT) 33-04N 096-04W
Apr 16, 2021 - 09:15 PM EDT / 2021.04.17 0115 UTC
Wind: from the N (350 degrees) at 10 MPH (9 KT):0
Visibility: 10 mile(s):0
Sky conditions: overcast
Temperature: 54.1 F (12.3 C)
Dew Point: 52.7 F (11.5 C)
Relative Humidity: 94%
Pressure (altimeter): 29.9 in. Hg (1012 hPa)
ob: KGVT 170115Z AUTO 35009KT 10SM OVC006 12/11 A2990 RMK AO2 TSNO T01230115
cycle: 1

Station Type Date Time Source
KGVT TAF UTC NOAA

Error!

Example: see airport list